OMAAFNLU

Guest
Details From OMAA - Abu Dhabi Intl
To FNLU - Luanda 4 De Fevereiro
Flight Number -
Tags Generated
Created
Modified
Stats Distance 3,144 nm / 5,822 km
Max Altitude 0 ft / 0 m
Waypoints 4
Social Downloads 0
Likes 0
Share VATSIM

Download

Looking for another format? Having issues loading an existing format? Contact us
Advertisement - Login to hide

Notes

Generated

Route

OMAA RIBOK LU FNLU

ID Type Via Altitude Latitude Longitude Leg Dist Tot Dist Heading (true) Name
O OMAA APT - 0 ft / 0 m 24.44439˚ 54.63521˚ - 0 nm - -
RIBOK FIX - 0 ft / 0 m 15.78333˚ 41.87500˚ 886 nm 886 nm 236° / 232° -
LU NDB - 0 ft / 0 m -8.79264˚ 13.30394˚ 2250 nm 3137 nm 231° / 229° LUANDA NDB
O FNLU APT - 0 ft / 0 m -8.85561˚ 13.22570˚ 5 nm 3143 nm 231° / 231° LUANDA 4 DE FEVEREIRO

Altitude Profile

Advertisement - Login to hide

Weather


0- 5 10 15 20 25 30 35+ Temperature / ° C

Clouds and Precipitation
Forecast for 2018-05-22 00:00 UTC. Updated 5 hours ago

Ground ~20,000 ft ~40,000 ft Winds

OMAA

Details ICAO OMAA (AUH)
Name ABU DHABI INTL
Region United Arab Emirates
Timezone Asia/Dubai (UTC+4.0)
Stats Elevation 88 ft / 27 m (AMSL)
Location 24.433049° 54.651182°
Runways 1
Magnetic Variation 2.000° E

METAR

OMAA 220400Z 08004KT 8000 NSC 31/11 Q1009 WS ALL RWY BECMG 17010KT

Decode

TAF

TAF OMAA 212300Z 2200/2306 08008KT 8000 NSC BECMG 2202/2204 15009KT BECMG 2208/2210 35014KT BECMG 2221/2223 06006KT BECMG 2303/2305 17012KT PROB30 TEMPO 2303/2306 4000 DU

Decode

Departure Runways

ID Width Length Bearing (true) Bearing (mag) Surface Threshold Offset Overrun Length
13 148 ft / 45 m 13,461 ft / 4,103 m 127.94° 125.94° Asphalt 0 ft / 0 m 180 ft / 55 m
31 148 ft / 45 m 13,461 ft / 4,103 m 307.95° 305.95° Asphalt 0 ft / 0 m 196 ft / 60 m

FNLU

Details ICAO FNLU (LAD)
Name LUANDA 4 DE FEVEREIRO
Region Angola
Timezone Africa/Luanda (UTC+1.0)
Stats Elevation 243 ft / 74 m (AMSL)
Location -8.858377° 13.231178°
Runways 2
Magnetic Variation 3.409° W

METAR

Not found

TAF

TAF FNLU 212300Z 2200/2306 14004KT 8000 NSC PROB30 TEMPO 2203/2207 VRB03KT 9000 BKN020 BECMG 2210/2212 28010KT 9999 FEW020 BKN050 TEMPO 2220/2222 22008KT CAVOK BECMG 2300/2303 16004KT 8000 NSC

Decode

Destination Runways

ID Width Length Bearing (true) Bearing (mag) Surface Threshold Offset Overrun Length
05 148 ft / 45 m 12,153 ft / 3,704 m 46.63° 50.04° Asphalt 0 ft / 0 m 0 ft / 0 m
07 197 ft / 60 m 8,176 ft / 2,492 m 67.40° 70.81° Asphalt 0 ft / 0 m 176 ft / 54 m
23 148 ft / 45 m 12,153 ft / 3,704 m 226.62° 230.03° Asphalt 500 ft / 152 m 0 ft / 0 m
25 197 ft / 60 m 8,176 ft / 2,492 m 247.40° 250.81° Asphalt 0 ft / 0 m 0 ft / 0 m

Approach Navaids

Runway Type Ident Frequency Range Bearing (true) Bearing (mag) Slope Elevation
23 Localiser ILD 110.30 MHz 18 nm / 33 km 226.62° 230.03° - 243 ft / 74 m (AMSL)
23 Glidescope ILD 110.30 MHz 10 nm / 19 km 226.62° 230.03° 3.00° 243 ft / 74 m (AMSL)
23 DME ILD 110.30 MHz 18 nm / 33 km - - - 243 ft / 74 m (AMSL)